createdAt,value
2022-08-07T00:01:44.731Z,106.55
2022-08-07T00:04:06.007Z,105.17
2022-08-07T00:06:33.863Z,126.38
2022-08-07T00:09:16.217Z,89.07
2022-08-07T00:11:47.960Z,186.88
2022-08-07T00:14:22.282Z,87.85
2022-08-07T00:16:52.681Z,82.18
2022-08-07T00:19:21.296Z,74.82
2022-08-07T00:21:56.568Z,92.17
2022-08-07T00:24:31.540Z,52.88
2022-08-07T00:27:06.388Z,89.65
2022-08-07T00:29:37.207Z,111.63
2022-08-07T00:32:06.828Z,195.77
2022-08-07T00:34:35.539Z,136.23
2022-08-07T00:37:04.946Z,89.38
2022-08-07T00:39:33.761Z,4.78
2022-08-07T00:42:05.251Z,2.20
2022-08-07T00:44:41.273Z,4.27
2022-08-07T00:47:15.613Z,6.53
2022-08-07T00:50:21.325Z,5.45
2022-08-07T00:52:43.035Z,3.65
2022-08-07T00:55:17.523Z,9.05
2022-08-07T00:57:55.969Z,65.72
2022-08-07T01:00:23.747Z,121.53
2022-08-07T01:02:51.679Z,107.35
2022-08-07T01:05:20.686Z,119.83
2022-08-07T01:07:51.518Z,131.00
2022-08-07T01:10:18.808Z,151.47
2022-08-07T01:12:54.069Z,130.50
2022-08-07T01:15:35.692Z,1.50
2022-08-07T01:18:17.138Z,1.92
2022-08-07T01:20:57.204Z,9.97
2022-08-07T01:23:36.916Z,16.50
2022-08-07T01:26:13.070Z,4.47
2022-08-07T01:28:46.511Z,5.88
2022-08-07T01:31:20.667Z,12.52
2022-08-07T01:33:57.652Z,28.88
2022-08-07T01:36:33.256Z,13.82
2022-08-07T01:39:10.044Z,24.50
2022-08-07T01:41:54.967Z,15.57
2022-08-07T01:44:30.927Z,2.05
2022-08-07T01:47:01.245Z,44.53
2022-08-07T01:49:42.803Z,87.93
2022-08-07T01:52:10.247Z,1.65
2022-08-07T01:54:40.248Z,6.47
2022-08-07T01:57:24.822Z,52.08
2022-08-07T02:00:13.722Z,8.52
2022-08-07T02:03:11.975Z,3.67
2022-08-07T02:05:59.421Z,10.13
2022-08-07T02:08:29.095Z,30.52
2022-08-07T02:10:59.331Z,71.27
2022-08-07T02:13:56.684Z,55.28
2022-08-07T02:16:20.051Z,42.05
2022-08-07T02:19:02.830Z,29.20
2022-08-07T02:21:56.172Z,49.30
2022-08-07T02:24:23.634Z,32.78
2022-08-07T02:26:51.036Z,34.50
2022-08-07T02:29:21.883Z,29.40
2022-08-07T02:31:51.056Z,16.08
2022-08-07T02:34:21.718Z,35.30
2022-08-07T02:36:53.160Z,36.57
2022-08-07T02:39:43.417Z,39.47
2022-08-07T02:42:16.212Z,12.15
2022-08-07T02:44:48.878Z,17.93
2022-08-07T02:47:23.428Z,3.67
2022-08-07T02:49:59.083Z,2.53
2022-08-07T02:52:39.203Z,2.33
2022-08-07T02:55:27.749Z,2.03
2022-08-07T02:58:13.309Z,2.55
2022-08-07T03:00:47.122Z,2.80
2022-08-07T03:03:22.752Z,1.92
2022-08-07T03:05:54.195Z,2.05
2022-08-07T03:08:27.040Z,22.63
2022-08-07T03:10:59.579Z,66.53
2022-08-07T03:13:39.146Z,72.37
2022-08-07T03:16:17.292Z,103.07
2022-08-07T03:18:47.854Z,60.30
2022-08-07T03:21:19.064Z,75.50
2022-08-07T03:24:19.341Z,30.90
2022-08-07T03:26:36.426Z,32.17
2022-08-07T03:29:19.873Z,42.10
2022-08-07T03:31:51.262Z,53.83
2022-08-07T03:34:22.844Z,36.40
2022-08-07T03:36:58.162Z,27.52
2022-08-07T03:39:45.890Z,37.10
2022-08-07T03:42:17.632Z,22.45
2022-08-07T03:44:53.110Z,4.13
2022-08-07T03:47:22.574Z,24.60
2022-08-07T03:49:53.367Z,41.50
2022-08-07T03:52:27.578Z,38.03
2022-08-07T03:55:07.034Z,37.43
2022-08-07T03:58:35.343Z,19.60
2022-08-07T04:00:33.851Z,3.50
2022-08-07T04:03:03.688Z,18.73
2022-08-07T04:05:40.541Z,25.63
2022-08-07T04:08:18.383Z,44.47
2022-08-07T04:10:53.930Z,11.40
2022-08-07T04:14:33.243Z,49.63
2022-08-07T04:16:31.454Z,47.45
2022-08-07T04:19:04.377Z,52.30
2022-08-07T04:21:39.831Z,49.03
2022-08-07T04:24:26.867Z,54.00
2022-08-07T04:26:59.616Z,45.58
2022-08-07T04:29:30.472Z,38.80
2022-08-07T04:32:16.064Z,42.50
2022-08-07T04:34:44.068Z,37.88
2022-08-07T04:37:20.133Z,38.70
2022-08-07T04:39:47.990Z,26.92
2022-08-07T04:42:17.935Z,29.25
2022-08-07T04:44:54.533Z,36.58
2022-08-07T04:48:00.461Z,13.68
2022-08-07T04:50:52.920Z,42.22
2022-08-07T04:54:01.728Z,33.10
2022-08-07T04:58:16.446Z,35.15
2022-08-07T05:00:10.857Z,13.65
2022-08-07T05:02:42.828Z,6.65
2022-08-07T05:05:54.144Z,2.90
2022-08-07T05:09:02.710Z,3.10
2022-08-07T05:11:58.398Z,1.10
2022-08-07T05:14:52.592Z,2.15
2022-08-07T05:17:52.290Z,1.33
2022-08-07T05:20:21.296Z,2.92
2022-08-07T05:22:52.868Z,3.17
2022-08-07T05:25:25.527Z,3.53
2022-08-07T05:28:20.363Z,1.88
2022-08-07T05:30:53.147Z,4.23
2022-08-07T05:33:21.727Z,3.53
2022-08-07T05:35:51.754Z,3.40
2022-08-07T05:39:00.729Z,3.38
2022-08-07T05:41:14.059Z,3.03
2022-08-07T05:44:07.705Z,2.50
2022-08-07T05:46:37.153Z,3.95
2022-08-07T05:49:12.446Z,3.33
2022-08-07T05:51:46.573Z,2.42
2022-08-07T05:54:31.273Z,2.00
2022-08-07T05:57:06.056Z,1.88
2022-08-07T05:59:46.619Z,3.20
2022-08-07T06:02:29.717Z,5.38
2022-08-07T06:05:06.634Z,12.07
2022-08-07T06:08:13.569Z,20.83
2022-08-07T06:10:24.181Z,5.40
2022-08-07T06:12:51.310Z,6.38
2022-08-07T06:15:20.319Z,20.33
2022-08-07T06:17:53.552Z,8.95
2022-08-07T06:20:25.669Z,38.83
2022-08-07T06:23:02.390Z,56.10
2022-08-07T06:25:54.091Z,55.67
2022-08-07T06:28:27.599Z,66.35
2022-08-07T06:30:58.153Z,81.70
2022-08-07T06:33:27.263Z,66.93
2022-08-07T06:36:12.831Z,128.27
2022-08-07T06:40:16.275Z,124.32
2022-08-07T06:42:01.636Z,99.00
2022-08-07T06:44:51.203Z,110.30
2022-08-07T06:47:19.734Z,100.43
2022-08-07T06:49:52.116Z,99.20
2022-08-07T06:52:35.563Z,104.90
2022-08-07T06:55:32.251Z,139.90
2022-08-07T06:58:02.356Z,84.60
2022-08-07T07:00:38.191Z,79.88
2022-08-07T07:03:08.893Z,86.32
2022-08-07T07:06:03.808Z,86.90
2022-08-07T07:08:28.179Z,74.03
2022-08-07T07:10:57.421Z,88.10
2022-08-07T07:13:56.554Z,141.00
2022-08-07T07:16:23.792Z,71.00
2022-08-07T07:19:54.402Z,81.30
2022-08-07T07:22:11.738Z,76.90
2022-08-07T07:24:43.148Z,61.40
2022-08-07T07:27:35.851Z,188.68
2022-08-07T07:30:32.631Z,203.00
2022-08-07T07:33:07.787Z,267.27
2022-08-07T07:35:43.979Z,46.60
2022-08-07T07:38:27.748Z,168.90
2022-08-07T07:41:02.208Z,199.02
2022-08-07T07:43:47.802Z,155.88
2022-08-07T07:46:36.618Z,16.40
2022-08-07T07:50:34.080Z,120.18
2022-08-07T07:51:59.899Z,99.03
2022-08-07T07:54:29.482Z,114.63
2022-08-07T07:56:57.670Z,139.02
2022-08-07T07:59:52.828Z,62.03
2022-08-07T08:02:34.171Z,21.63
2022-08-07T08:05:14.520Z,24.48
2022-08-07T08:08:00.021Z,49.10
2022-08-07T08:10:35.554Z,38.63
2022-08-07T08:13:07.268Z,71.53
2022-08-07T08:15:43.635Z,87.43
2022-08-07T08:18:27.372Z,162.30
2022-08-07T08:20:54.551Z,40.35
2022-08-07T08:23:44.378Z,25.98
2022-08-07T08:26:34.512Z,34.83
2022-08-07T08:29:03.581Z,6.32
2022-08-07T08:32:16.787Z,5.20
2022-08-07T08:34:33.803Z,60.72
2022-08-07T08:37:04.924Z,66.28
2022-08-07T08:39:39.645Z,37.43
2022-08-07T08:42:46.774Z,53.40
2022-08-07T08:45:59.279Z,35.65
2022-08-07T08:48:51.958Z,33.17
2022-08-07T08:52:00.722Z,47.35
2022-08-07T08:54:47.447Z,9.35
2022-08-07T08:57:34.081Z,27.08
2022-08-07T09:00:07.762Z,2.25
2022-08-07T09:02:57.759Z,2.65
2022-08-07T09:05:38.021Z,3.17
2022-08-07T09:08:29.624Z,4.25
2022-08-07T09:11:24.476Z,3.47
2022-08-07T09:14:12.400Z,58.88
2022-08-07T09:17:17.209Z,45.00
2022-08-07T09:20:19.607Z,48.63
2022-08-07T09:24:31.970Z,35.33
2022-08-07T09:26:31.755Z,13.45
2022-08-07T09:30:04.645Z,4.63
2022-08-07T09:32:45.916Z,11.45
2022-08-07T09:36:05.147Z,7.47
2022-08-07T09:38:10.391Z,3.70
2022-08-07T09:41:15.430Z,16.20
2022-08-07T09:44:32.747Z,11.18
2022-08-07T09:47:51.294Z,83.50
2022-08-07T09:50:44.030Z,68.97
2022-08-07T09:53:12.849Z,15.50
2022-08-07T09:56:03.609Z,10.53
2022-08-07T09:58:56.722Z,72.72
2022-08-07T10:02:03.273Z,4.88
2022-08-07T10:05:00.795Z,2.15
2022-08-07T10:07:52.957Z,11.63
2022-08-07T10:10:22.819Z,13.70
2022-08-07T10:13:15.944Z,45.37
2022-08-07T10:16:19.379Z,45.83
2022-08-07T10:18:59.220Z,73.77
2022-08-07T10:22:15.600Z,56.15
2022-08-07T10:24:54.787Z,13.73
2022-08-07T10:27:46.097Z,54.53
2022-08-07T10:30:19.569Z,70.82
2022-08-07T10:33:08.494Z,87.10
2022-08-07T10:36:17.166Z,45.63
2022-08-07T10:38:59.743Z,70.90
2022-08-07T10:41:46.819Z,19.27
2022-08-07T10:44:28.706Z,28.00
2022-08-07T10:47:27.018Z,19.98
2022-08-07T10:50:15.226Z,10.43
2022-08-07T10:53:05.223Z,2.58
2022-08-07T10:55:53.439Z,2.70
2022-08-07T10:58:49.660Z,2.90
2022-08-07T11:01:51.717Z,2.05
2022-08-07T11:04:58.963Z,5.63
2022-08-07T11:08:01.247Z,6.50
2022-08-07T11:10:34.739Z,4.75
2022-08-07T11:13:42.292Z,12.40
2022-08-07T11:16:11.501Z,5.33
2022-08-07T11:18:50.850Z,5.82
2022-08-07T11:21:29.126Z,1.97
2022-08-07T11:24:08.455Z,4.75
2022-08-07T11:26:50.209Z,5.85
2022-08-07T11:29:41.160Z,5.45
2022-08-07T11:32:25.396Z,1.83
2022-08-07T11:34:58.606Z,2.70
2022-08-07T11:37:58.155Z,1.20
2022-08-07T11:40:56.196Z,2.13
2022-08-07T11:43:54.722Z,4.50
2022-08-07T11:46:36.861Z,6.20
2022-08-07T11:50:11.145Z,4.13
2022-08-07T11:52:50.512Z,2.53
2022-08-07T11:56:25.131Z,4.97
2022-08-07T11:58:41.764Z,8.20
2022-08-07T12:02:00.733Z,13.68
2022-08-07T12:04:36.665Z,4.82
2022-08-07T12:07:20.175Z,5.55
2022-08-07T12:10:07.745Z,8.18
2022-08-07T12:12:43.754Z,1.90
2022-08-07T12:15:46.702Z,6.15
2022-08-07T12:18:13.164Z,2.10
2022-08-07T12:20:49.379Z,2.67
2022-08-07T12:24:05.781Z,2.00
2022-08-07T12:26:53.331Z,2.03
2022-08-07T12:29:37.267Z,2.40
2022-08-07T12:32:19.426Z,2.38
2022-08-07T12:34:49.162Z,1.60
2022-08-07T12:37:23.454Z,1.48
2022-08-07T12:39:58.487Z,2.60
2022-08-07T12:42:31.753Z,1.83
2022-08-07T12:45:07.106Z,1.35
2022-08-07T12:47:49.367Z,2.90
2022-08-07T12:50:40.259Z,2.25
2022-08-07T12:54:02.819Z,1.37
2022-08-07T12:56:29.206Z,2.17
2022-08-07T12:58:59.716Z,1.30
2022-08-07T13:01:32.078Z,2.35
2022-08-07T13:04:49.245Z,1.10
2022-08-07T13:08:12.354Z,1.85
2022-08-07T13:12:02.268Z,1.67
2022-08-07T13:14:51.254Z,1.60
2022-08-07T13:17:41.131Z,2.10
2022-08-07T13:20:27.787Z,3.97
2022-08-07T13:24:01.300Z,1.60
2022-08-07T13:26:04.092Z,1.75
2022-08-07T13:28:38.752Z,2.93
2022-08-07T13:31:13.139Z,1.20
2022-08-07T13:34:31.026Z,1.35
2022-08-07T13:36:47.556Z,1.77
2022-08-07T13:40:32.767Z,1.70
2022-08-07T13:42:25.085Z,2.10
2022-08-07T13:45:11.505Z,1.85
2022-08-07T13:48:05.941Z,1.10
2022-08-07T13:51:00.116Z,2.00
2022-08-07T13:53:23.732Z,2.10
2022-08-07T13:55:54.573Z,2.78
2022-08-07T13:58:56.545Z,2.22
2022-08-07T14:01:27.065Z,2.10
2022-08-07T14:04:06.716Z,1.10
2022-08-07T14:06:38.533Z,1.67
2022-08-07T14:09:09.771Z,1.58
2022-08-07T14:11:53.420Z,2.13
2022-08-07T14:14:51.728Z,2.40
2022-08-07T14:18:13.114Z,4.43
2022-08-07T14:20:44.567Z,8.15
2022-08-07T14:23:31.512Z,1.70
2022-08-07T14:26:28.654Z,1.50
2022-08-07T14:29:08.625Z,1.52
2022-08-07T14:34:30.064Z,2.10
2022-08-07T14:37:03.680Z,2.17
2022-08-07T14:40:15.803Z,3.10
2022-08-07T14:42:31.401Z,1.65
2022-08-07T14:45:21.766Z,1.83
2022-08-07T14:47:51.409Z,1.52
2022-08-07T14:50:28.229Z,2.20
2022-08-07T14:52:56.931Z,2.03
2022-08-07T14:55:55.285Z,3.50
2022-08-07T14:58:27.050Z,14.90
2022-08-07T15:00:55.639Z,11.57
2022-08-07T15:03:52.349Z,14.30
2022-08-07T15:06:25.855Z,12.18
2022-08-07T15:08:55.536Z,9.20
2022-08-07T15:11:54.112Z,10.02
2022-08-07T15:14:17.619Z,8.82
2022-08-07T15:16:54.883Z,9.23
2022-08-07T15:20:23.626Z,9.27
2022-08-07T15:22:23.175Z,8.07
2022-08-07T15:25:14.054Z,6.78
2022-08-07T15:28:30.728Z,8.90
2022-08-07T15:30:36.559Z,11.25
2022-08-07T15:33:33.962Z,12.98
2022-08-07T15:36:05.702Z,13.52
2022-08-07T15:42:45.154Z,18.92
2022-08-07T15:44:17.175Z,10.75
2022-08-07T15:52:30.007Z,32.50
2022-08-07T15:55:03.526Z,33.10
2022-08-07T15:57:39.986Z,34.83
2022-08-07T16:00:22.728Z,43.20
2022-08-07T16:03:04.440Z,46.60
2022-08-07T16:05:31.754Z,42.13
2022-08-07T16:08:32.213Z,43.65
2022-08-07T16:11:01.060Z,9.17
2022-08-07T16:13:59.768Z,15.40
2022-08-07T16:16:48.037Z,8.73
2022-08-07T16:19:42.508Z,15.73
2022-08-07T16:22:37.729Z,15.35
2022-08-07T16:25:22.799Z,17.67
2022-08-07T16:29:18.872Z,39.08
2022-08-07T16:31:02.509Z,7.10
2022-08-07T16:34:01.550Z,47.50
2022-08-07T16:36:47.852Z,42.22
2022-08-07T16:40:03.034Z,17.60
2022-08-07T16:42:49.945Z,22.17
2022-08-07T16:46:47.223Z,98.55
2022-08-07T16:49:03.947Z,133.93
2022-08-07T16:52:35.444Z,56.15
2022-08-07T16:55:47.217Z,83.45
2022-08-07T16:59:10.322Z,102.80
2022-08-07T17:01:53.830Z,15.30
2022-08-07T17:04:33.217Z,8.82
2022-08-07T17:07:28.512Z,16.92
2022-08-07T17:10:34.477Z,10.17
2022-08-07T17:13:16.387Z,14.15
2022-08-07T17:15:56.881Z,27.70
2022-08-07T17:18:46.005Z,46.10
2022-08-07T17:21:23.512Z,62.55
2022-08-07T17:24:28.753Z,161.50
2022-08-07T17:26:58.632Z,425.63
2022-08-07T17:30:14.459Z,136.48
2022-08-07T17:32:52.955Z,59.47
2022-08-07T17:35:50.341Z,212.32
2022-08-07T17:38:34.132Z,115.72
2022-08-07T17:42:02.898Z,158.37
2022-08-07T17:44:41.330Z,223.77
2022-08-07T17:47:42.808Z,247.93
2022-08-07T17:50:32.988Z,339.95
2022-08-07T17:53:59.988Z,250.32
2022-08-07T17:56:35.787Z,195.75
2022-08-07T17:59:20.744Z,216.32
2022-08-07T18:02:03.958Z,183.80
2022-08-07T18:04:44.801Z,199.50
2022-08-07T18:07:24.325Z,190.63
2022-08-07T18:10:10.218Z,226.00
2022-08-07T18:13:01.149Z,214.57
2022-08-07T18:15:53.813Z,241.55
2022-08-07T18:18:46.956Z,229.20
2022-08-07T18:22:03.563Z,268.23
2022-08-07T18:24:43.006Z,232.82
2022-08-07T18:27:12.848Z,146.20
2022-08-07T18:30:31.875Z,219.50
2022-08-07T18:33:10.709Z,276.40
2022-08-07T18:35:55.601Z,301.52
2022-08-07T18:38:55.947Z,272.33
2022-08-07T18:42:07.616Z,280.92
2022-08-07T18:45:44.168Z,264.67
2022-08-07T18:48:05.486Z,134.93
2022-08-07T18:50:47.657Z,164.90
2022-08-07T18:53:36.861Z,261.63
2022-08-07T18:56:20.992Z,258.90
2022-08-07T18:59:47.883Z,253.25
2022-08-07T19:02:18.633Z,240.98
2022-08-07T19:05:23.574Z,247.95
2022-08-07T19:07:59.674Z,257.42
2022-08-07T19:10:51.554Z,272.60
2022-08-07T19:13:51.972Z,230.77
2022-08-07T19:17:07.644Z,239.90
2022-08-07T19:19:46.001Z,292.02
2022-08-07T19:22:31.124Z,255.70
2022-08-07T19:25:05.445Z,261.40
2022-08-07T19:28:29.891Z,214.57
2022-08-07T19:31:03.116Z,272.52
2022-08-07T19:33:33.551Z,281.52
2022-08-07T19:36:03.918Z,137.32
2022-08-07T19:38:35.631Z,307.98
2022-08-07T19:41:44.733Z,278.02
2022-08-07T19:44:21.380Z,123.77
2022-08-07T19:46:55.671Z,215.68
2022-08-07T19:49:56.684Z,196.32
2022-08-07T19:52:18.416Z,238.25
2022-08-07T19:54:57.424Z,255.18
2022-08-07T19:58:03.261Z,294.67
2022-08-07T20:00:36.495Z,150.20
2022-08-07T20:03:35.181Z,278.55
2022-08-07T20:06:02.500Z,236.07
2022-08-07T20:08:35.639Z,304.37
2022-08-07T20:11:10.178Z,104.97
2022-08-07T20:13:45.385Z,153.35
2022-08-07T20:16:34.668Z,242.38
2022-08-07T20:19:10.943Z,319.13
2022-08-07T20:21:47.305Z,293.98
2022-08-07T20:24:30.108Z,259.83
2022-08-07T20:27:02.245Z,263.15
2022-08-07T20:29:48.402Z,206.45
2022-08-07T20:32:25.464Z,172.23
2022-08-07T20:34:57.402Z,203.68
2022-08-07T20:37:57.806Z,229.63
2022-08-07T20:40:33.453Z,17.08
2022-08-07T20:43:03.796Z,16.60
2022-08-07T20:46:25.793Z,3.30
2022-08-07T20:48:33.993Z,4.05
2022-08-07T20:51:09.571Z,40.17
2022-08-07T20:54:03.020Z,16.97
2022-08-07T20:56:30.416Z,253.40
2022-08-07T20:59:05.201Z,223.88
2022-08-07T21:01:45.256Z,218.23
2022-08-07T21:04:21.973Z,220.65
2022-08-07T21:06:55.125Z,193.67
2022-08-07T21:09:30.108Z,167.87
2022-08-07T21:12:29.041Z,305.00
2022-08-07T21:15:02.820Z,274.73
2022-08-07T21:18:01.929Z,111.05
2022-08-07T21:20:30.255Z,196.82
2022-08-07T21:23:08.267Z,143.90
2022-08-07T21:25:56.277Z,209.15
2022-08-07T21:28:48.705Z,270.92
2022-08-07T21:32:10.890Z,141.65
2022-08-07T21:34:55.552Z,127.18
2022-08-07T21:37:57.911Z,173.57
2022-08-07T21:40:38.355Z,241.00
2022-08-07T21:43:17.684Z,164.48
2022-08-07T21:46:25.042Z,254.93
2022-08-07T21:49:17.879Z,271.40
2022-08-07T21:52:13.157Z,158.20
2022-08-07T21:54:59.287Z,313.73
2022-08-07T21:58:06.311Z,179.38
2022-08-07T22:00:33.697Z,135.52
2022-08-07T22:03:16.765Z,258.33
2022-08-07T22:06:30.873Z,284.50
2022-08-07T22:09:07.935Z,313.00
2022-08-07T22:12:05.006Z,226.13
2022-08-07T22:14:37.628Z,141.68
2022-08-07T22:17:16.263Z,264.52
2022-08-07T22:20:04.276Z,274.42
2022-08-07T22:22:46.691Z,280.05
2022-08-07T22:25:27.025Z,313.63
2022-08-07T22:28:31.373Z,293.25
2022-08-07T22:31:56.213Z,78.77
2022-08-07T22:34:13.257Z,50.88
2022-08-07T22:37:14.648Z,60.72
2022-08-07T22:39:53.321Z,154.77
2022-08-07T22:42:25.969Z,92.05
2022-08-07T22:45:02.302Z,64.93
2022-08-07T22:47:52.451Z,24.97
2022-08-07T22:50:35.610Z,46.72
2022-08-07T22:54:09.179Z,137.00
2022-08-07T22:56:12.915Z,160.27
2022-08-07T22:58:43.134Z,29.25
2022-08-07T23:01:49.750Z,35.38
2022-08-07T23:04:58.381Z,45.38
2022-08-07T23:07:47.507Z,28.30
2022-08-07T23:10:42.034Z,42.70
2022-08-07T23:13:09.238Z,227.07
2022-08-07T23:16:06.591Z,196.80
2022-08-07T23:19:48.188Z,158.50
2022-08-07T23:22:40.839Z,88.75
2022-08-07T23:25:36.371Z,111.35
2022-08-07T23:28:29.010Z,19.40
2022-08-07T23:32:49.661Z,73.60
2022-08-07T23:34:51.654Z,121.05
2022-08-07T23:38:14.379Z,25.60
2022-08-07T23:40:51.964Z,150.07
2022-08-07T23:43:38.067Z,79.57
2022-08-07T23:46:33.716Z,154.25
2022-08-07T23:49:50.105Z,124.95
2022-08-07T23:53:16.613Z,134.98
2022-08-07T23:55:51.677Z,185.63
2022-08-07T23:58:43.607Z,100.25
